createdAt,value
2023-02-11T00:00:18.024Z,18.88
2023-02-11T00:01:25.165Z,18.33
2023-02-11T00:02:29.627Z,16.98
2023-02-11T00:03:31.232Z,18.60
2023-02-11T00:04:35.709Z,17.30
2023-02-11T00:05:37.353Z,17.95
2023-02-11T00:06:39.115Z,17.15
2023-02-11T00:07:40.671Z,18.70
2023-02-11T00:08:42.316Z,17.70
2023-02-11T00:09:44.006Z,18.05
2023-02-11T00:10:46.510Z,17.85
2023-02-11T00:11:47.966Z,17.38
2023-02-11T00:12:49.385Z,17.17
2023-02-11T00:13:51.212Z,18.77
2023-02-11T00:14:52.751Z,18.95
2023-02-11T00:15:54.938Z,17.88
2023-02-11T00:16:59.809Z,19.55
2023-02-11T00:18:01.534Z,18.23
2023-02-11T00:19:06.837Z,19.45
2023-02-11T00:20:09.133Z,18.00
2023-02-11T00:21:13.684Z,20.35
2023-02-11T00:22:15.280Z,17.85
2023-02-11T00:23:16.906Z,17.70
2023-02-11T00:24:18.585Z,18.00
2023-02-11T00:25:20.530Z,18.08
2023-02-11T00:26:24.514Z,19.42
2023-02-11T00:27:26.309Z,18.60
2023-02-11T00:28:28.331Z,19.85
2023-02-11T00:29:29.942Z,20.40
2023-02-11T00:30:31.680Z,18.63
2023-02-11T00:31:33.938Z,19.00
2023-02-11T00:32:35.570Z,18.90
2023-02-11T00:33:37.073Z,18.83
2023-02-11T00:34:38.543Z,19.48
2023-02-11T00:35:39.993Z,17.90
2023-02-11T00:36:41.848Z,19.65
2023-02-11T00:37:43.300Z,19.02
2023-02-11T00:38:45.854Z,20.05
2023-02-11T00:39:47.527Z,18.52
2023-02-11T00:40:48.970Z,19.15
2023-02-11T00:41:50.724Z,18.17
2023-02-11T00:42:52.176Z,17.92
2023-02-11T00:43:53.801Z,18.20
2023-02-11T00:44:55.252Z,17.83
2023-02-11T00:45:56.865Z,19.90
2023-02-11T00:46:58.326Z,19.20
2023-02-11T00:47:59.838Z,19.00
2023-02-11T00:49:03.781Z,18.60
2023-02-11T00:50:06.321Z,19.08
2023-02-11T00:51:08.581Z,18.05
2023-02-11T00:52:10.076Z,18.90
2023-02-11T00:53:11.804Z,19.67
2023-02-11T00:54:13.386Z,17.80
2023-02-11T00:55:15.981Z,19.17
2023-02-11T00:56:17.588Z,17.55
2023-02-11T00:57:19.037Z,18.38
2023-02-11T00:58:21.302Z,19.98
2023-02-11T00:59:22.998Z,18.95
2023-02-11T01:00:24.512Z,17.90
2023-02-11T01:01:26.412Z,18.15
2023-02-11T01:02:27.995Z,20.67
2023-02-11T01:03:30.135Z,19.73
2023-02-11T01:04:31.611Z,20.40
2023-02-11T01:05:33.215Z,19.80
2023-02-11T01:06:34.712Z,19.63
2023-02-11T01:07:36.339Z,19.17
2023-02-11T01:08:38.151Z,19.48
2023-02-11T01:09:42.152Z,20.30
2023-02-11T01:10:44.052Z,20.67
2023-02-11T01:11:45.552Z,20.20
2023-02-11T01:12:47.147Z,19.38
2023-02-11T01:13:49.747Z,20.10
2023-02-11T01:14:51.297Z,19.88
2023-02-11T01:15:53.382Z,19.80
2023-02-11T01:16:55.094Z,20.63
2023-02-11T01:17:56.608Z,19.95
2023-02-11T01:18:58.916Z,19.63
2023-02-11T01:20:04.093Z,19.42
2023-02-11T01:21:05.706Z,19.70
2023-02-11T01:22:10.144Z,18.90
2023-02-11T01:23:16.135Z,19.15
2023-02-11T01:24:17.925Z,19.27
2023-02-11T01:25:22.891Z,18.35
2023-02-11T01:26:24.490Z,20.40
2023-02-11T01:27:26.108Z,18.60
2023-02-11T01:28:29.691Z,17.85
2023-02-11T01:29:31.303Z,18.25
2023-02-11T01:30:33.003Z,18.73
2023-02-11T01:31:35.014Z,18.15
2023-02-11T01:32:36.852Z,19.55
2023-02-11T01:33:38.535Z,17.85
2023-02-11T01:34:40.314Z,19.90
2023-02-11T01:35:42.417Z,18.08
2023-02-11T01:36:43.962Z,18.90
2023-02-11T01:37:45.662Z,18.52
2023-02-11T01:38:47.360Z,18.20
2023-02-11T01:39:48.849Z,18.25
2023-02-11T01:41:02.887Z,19.23
2023-02-11T01:42:04.472Z,19.80
2023-02-11T01:43:06.656Z,18.42
2023-02-11T01:44:24.352Z,17.90
2023-02-11T01:45:58.255Z,17.35
2023-02-11T01:47:00.658Z,17.42
2023-02-11T01:48:02.525Z,18.60
2023-02-11T01:49:18.930Z,18.25
2023-02-11T01:50:20.895Z,18.38
2023-02-11T01:51:32.045Z,18.92
2023-02-11T01:52:39.289Z,18.67
2023-02-11T01:54:00.589Z,20.48
2023-02-11T01:55:31.124Z,18.70
2023-02-11T01:56:54.058Z,19.35
2023-02-11T01:57:59.238Z,16.83
2023-02-11T01:59:11.524Z,19.40
2023-02-11T02:00:15.829Z,19.08
2023-02-11T02:01:23.312Z,19.17
2023-02-11T02:02:37.350Z,18.35
2023-02-11T02:03:43.903Z,18.63
2023-02-11T02:05:02.553Z,18.40
2023-02-11T02:06:12.460Z,18.63
2023-02-11T02:07:25.256Z,18.02
2023-02-11T02:08:32.990Z,17.85
2023-02-11T02:09:40.148Z,19.73
2023-02-11T02:10:45.794Z,18.30
2023-02-11T02:11:47.542Z,18.08
2023-02-11T02:12:49.284Z,18.85
2023-02-11T02:13:50.765Z,19.08
2023-02-11T02:15:20.102Z,19.45
2023-02-11T02:16:23.390Z,18.77
2023-02-11T02:17:41.416Z,19.85
2023-02-11T02:19:01.771Z,18.05
2023-02-11T02:20:25.879Z,17.45
2023-02-11T02:22:01.549Z,18.27
2023-02-11T02:23:02.940Z,18.20
2023-02-11T02:24:22.194Z,17.30
2023-02-11T02:26:09.075Z,18.20
2023-02-11T02:27:25.943Z,17.95
2023-02-11T02:29:05.807Z,17.70
2023-02-11T02:30:33.138Z,18.27
2023-02-11T02:31:52.749Z,17.63
2023-02-11T02:32:57.236Z,17.52
2023-02-11T02:34:19.829Z,18.17
2023-02-11T02:35:48.634Z,17.83
2023-02-11T02:37:11.141Z,16.98
2023-02-11T02:38:34.258Z,17.65
2023-02-11T02:39:37.358Z,17.40
2023-02-11T02:40:48.815Z,17.77
2023-02-11T02:41:52.857Z,18.88
2023-02-11T02:42:55.245Z,17.35
2023-02-11T02:43:57.253Z,17.95
2023-02-11T02:44:58.898Z,17.63
2023-02-11T02:46:33.613Z,18.98
2023-02-11T02:47:35.678Z,17.83
2023-02-11T02:48:37.188Z,18.08
2023-02-11T02:49:38.630Z,18.05
2023-02-11T02:50:40.204Z,19.05
2023-02-11T02:52:07.033Z,17.17
2023-02-11T02:53:49.439Z,17.63
2023-02-11T02:55:15.666Z,16.85
2023-02-11T02:56:33.173Z,17.67
2023-02-11T02:58:02.175Z,17.85
2023-02-11T02:59:19.365Z,16.85
2023-02-11T03:00:30.555Z,17.60
2023-02-11T03:01:37.688Z,18.92
2023-02-11T03:02:54.947Z,17.85
2023-02-11T03:04:05.924Z,18.55
2023-02-11T03:05:19.629Z,18.02
2023-02-11T03:06:47.206Z,18.13
2023-02-11T03:07:59.208Z,17.88
2023-02-11T03:09:13.053Z,17.92
2023-02-11T03:10:18.563Z,18.33
2023-02-11T03:11:21.897Z,17.75
2023-02-11T03:12:25.050Z,18.35
2023-02-11T03:14:32.435Z,17.63
2023-02-11T03:15:38.832Z,16.80
2023-02-11T03:16:41.332Z,17.85
2023-02-11T03:17:46.133Z,17.85
2023-02-11T03:18:53.197Z,17.50
2023-02-11T03:19:56.769Z,19.10
2023-02-11T03:20:59.854Z,18.05
2023-02-11T03:22:05.295Z,18.83
2023-02-11T03:23:30.797Z,17.33
2023-02-11T03:24:37.524Z,18.33
2023-02-11T03:25:53.238Z,17.92
2023-02-11T03:26:57.894Z,17.48
2023-02-11T03:28:06.829Z,17.40
2023-02-11T03:29:16.976Z,17.52
2023-02-11T03:30:28.505Z,18.10
2023-02-11T03:31:44.218Z,17.45
2023-02-11T03:32:51.938Z,16.63
2023-02-11T03:34:02.461Z,17.13
2023-02-11T03:35:32.894Z,17.75
2023-02-11T03:36:50.758Z,17.92
2023-02-11T03:37:57.686Z,17.10
2023-02-11T03:39:01.834Z,17.63
2023-02-11T03:40:08.236Z,17.58
2023-02-11T03:41:11.272Z,17.48
2023-02-11T03:42:15.354Z,19.17
2023-02-11T03:43:21.280Z,18.45
2023-02-11T03:44:25.342Z,18.05
2023-02-11T03:45:28.658Z,17.80
2023-02-11T03:46:38.849Z,17.92
2023-02-11T03:47:46.060Z,17.63
2023-02-11T03:48:51.897Z,16.38
2023-02-11T03:49:55.925Z,18.02
2023-02-11T03:50:59.621Z,17.52
2023-02-11T03:52:03.013Z,18.58
2023-02-11T03:53:06.693Z,17.83
2023-02-11T03:54:14.286Z,16.05
2023-02-11T03:55:18.630Z,17.50
2023-02-11T03:56:23.386Z,16.45
2023-02-11T03:57:24.869Z,16.73
2023-02-11T03:58:26.911Z,17.27
2023-02-11T03:59:28.453Z,17.77
2023-02-11T04:00:32.044Z,17.67
2023-02-11T04:01:34.202Z,18.92
2023-02-11T04:02:37.589Z,17.15
2023-02-11T04:03:39.109Z,18.02
2023-02-11T04:04:40.747Z,18.30
2023-02-11T04:05:42.413Z,16.98
2023-02-11T04:06:44.158Z,17.70
2023-02-11T04:07:45.582Z,19.58
2023-02-11T04:08:47.098Z,17.00
2023-02-11T04:09:49.288Z,17.35
2023-02-11T04:10:51.229Z,18.20
2023-02-11T04:11:52.819Z,16.95
2023-02-11T04:12:54.423Z,17.13
2023-02-11T04:13:56.419Z,18.63
2023-02-11T04:14:57.941Z,18.23
2023-02-11T04:15:59.514Z,18.10
2023-02-11T04:17:01.040Z,18.67
2023-02-11T04:18:03.612Z,18.05
2023-02-11T04:19:05.147Z,18.33
2023-02-11T04:20:07.148Z,17.10
2023-02-11T04:21:09.313Z,18.00
2023-02-11T04:22:10.869Z,17.00
2023-02-11T04:23:12.414Z,18.67
2023-02-11T04:24:14.454Z,17.85
2023-02-11T04:25:16.014Z,17.23
2023-02-11T04:26:17.544Z,18.65
2023-02-11T04:27:19.113Z,17.63
2023-02-11T04:28:20.637Z,17.85
2023-02-11T04:29:22.978Z,16.70
2023-02-11T04:30:24.627Z,17.63
2023-02-11T04:31:26.287Z,18.20
2023-02-11T04:32:28.119Z,17.40
2023-02-11T04:33:30.254Z,17.48
2023-02-11T04:34:31.801Z,16.98
2023-02-11T04:35:33.985Z,16.65
2023-02-11T04:36:35.542Z,16.30
2023-02-11T04:37:37.041Z,16.10
2023-02-11T04:38:38.557Z,16.60
2023-02-11T04:39:40.562Z,17.77
2023-02-11T04:40:42.033Z,17.75
2023-02-11T04:41:43.560Z,17.45
2023-02-11T04:42:45.434Z,15.60
2023-02-11T04:43:46.907Z,18.02
2023-02-11T04:44:48.377Z,17.13
2023-02-11T04:45:50.249Z,17.67
2023-02-11T04:46:52.431Z,17.45
2023-02-11T04:47:54.168Z,17.52
2023-02-11T04:48:56.543Z,17.98
2023-02-11T04:49:58.478Z,16.17
2023-02-11T04:51:00.003Z,17.17
2023-02-11T04:52:01.553Z,16.90
2023-02-11T04:53:03.112Z,16.73
2023-02-11T04:54:04.778Z,17.65
2023-02-11T04:55:06.828Z,16.58
2023-02-11T04:56:08.435Z,17.63
2023-02-11T04:57:09.927Z,16.75
2023-02-11T04:58:11.458Z,17.42
2023-02-11T04:59:13.577Z,16.63
2023-02-11T05:00:16.132Z,16.88
2023-02-11T05:01:17.779Z,16.48
2023-02-11T05:02:19.334Z,17.70
2023-02-11T05:03:20.896Z,18.35
2023-02-11T05:04:22.561Z,17.10
2023-02-11T05:05:24.769Z,17.10
2023-02-11T05:06:26.529Z,16.38
2023-02-11T05:07:28.416Z,17.35
2023-02-11T05:08:30.343Z,18.13
2023-02-11T05:09:31.815Z,16.73
2023-02-11T05:10:34.576Z,16.50
2023-02-11T05:11:36.990Z,16.90
2023-02-11T05:12:38.581Z,17.90
2023-02-11T05:13:40.072Z,16.92
2023-02-11T05:14:41.637Z,16.42
2023-02-11T05:15:43.512Z,17.98
2023-02-11T05:16:44.991Z,17.83
2023-02-11T05:17:47.252Z,17.50
2023-02-11T05:18:52.426Z,17.15
2023-02-11T05:19:54.592Z,17.25
2023-02-11T05:20:56.617Z,16.73
2023-02-11T05:22:02.873Z,17.00
2023-02-11T05:23:04.903Z,16.98
2023-02-11T05:24:06.900Z,18.52
2023-02-11T05:25:08.907Z,16.13
2023-02-11T05:26:11.353Z,18.95
2023-02-11T05:27:13.148Z,17.98
2023-02-11T05:28:14.954Z,18.92
2023-02-11T05:29:16.430Z,16.85
2023-02-11T05:30:18.050Z,17.30
2023-02-11T05:31:19.713Z,17.98
2023-02-11T05:32:21.524Z,17.73
2023-02-11T05:33:25.110Z,17.05
2023-02-11T05:34:27.005Z,17.45
2023-02-11T05:35:28.583Z,16.83
2023-02-11T05:36:33.331Z,17.15
2023-02-11T05:37:35.477Z,16.88
2023-02-11T05:38:38.074Z,17.13
2023-02-11T05:39:42.246Z,16.25
2023-02-11T05:40:44.027Z,15.60
2023-02-11T05:41:45.776Z,16.05
2023-02-11T05:42:47.215Z,16.63
2023-02-11T05:43:51.528Z,16.70
2023-02-11T05:44:53.501Z,18.02
2023-02-11T05:45:55.854Z,18.05
2023-02-11T05:46:57.418Z,17.60
2023-02-11T05:47:58.971Z,16.38
2023-02-11T05:49:00.484Z,16.17
2023-02-11T05:50:02.083Z,16.70
2023-02-11T05:51:03.720Z,15.88
2023-02-11T05:52:05.631Z,16.40
2023-02-11T05:53:07.269Z,16.17
2023-02-11T05:54:08.891Z,17.52
2023-02-11T05:55:10.600Z,16.58
2023-02-11T05:56:12.674Z,16.42
2023-02-11T05:57:14.345Z,17.23
2023-02-11T05:58:16.311Z,15.98
2023-02-11T05:59:18.377Z,17.63
2023-02-11T06:00:20.106Z,15.55
2023-02-11T06:01:21.645Z,16.27
2023-02-11T06:02:23.169Z,16.58
2023-02-11T06:03:24.702Z,16.88
2023-02-11T06:04:26.475Z,16.10
2023-02-11T06:05:27.971Z,16.10
2023-02-11T06:06:29.626Z,15.40
2023-02-11T06:07:31.220Z,15.90
2023-02-11T06:08:33.162Z,16.08
2023-02-11T06:09:34.652Z,15.30
2023-02-11T06:10:36.247Z,15.88
2023-02-11T06:11:38.120Z,15.25
2023-02-11T06:12:39.702Z,15.77
2023-02-11T06:13:41.187Z,16.23
2023-02-11T06:14:45.727Z,15.23
2023-02-11T06:15:58.794Z,15.75
2023-02-11T06:17:01.997Z,15.93
2023-02-11T06:20:08.689Z,15.57
2023-02-11T06:21:11.482Z,15.30
2023-02-11T06:22:13.292Z,15.55
2023-02-11T06:23:15.237Z,15.85
2023-02-11T06:24:24.686Z,16.35
2023-02-11T06:25:38.381Z,15.73
2023-02-11T06:26:39.865Z,16.58
2023-02-11T06:27:41.789Z,16.73
2023-02-11T06:28:43.529Z,16.30
2023-02-11T06:29:46.053Z,16.98
2023-02-11T06:30:47.543Z,15.73
2023-02-11T06:31:49.180Z,15.13
2023-02-11T06:32:51.718Z,17.30
2023-02-11T06:33:55.008Z,16.23
2023-02-11T06:34:57.059Z,15.85
2023-02-11T06:35:58.507Z,17.00
2023-02-11T06:36:59.972Z,16.45
2023-02-11T06:38:04.219Z,15.88
2023-02-11T06:39:05.772Z,15.43
2023-02-11T06:40:07.806Z,15.93
2023-02-11T06:41:14.142Z,15.85
2023-02-11T06:42:15.701Z,18.35
2023-02-11T06:43:17.426Z,16.08
2023-02-11T06:44:18.866Z,17.02
2023-02-11T06:45:20.621Z,17.08
2023-02-11T06:46:22.313Z,16.05
2023-02-11T06:47:23.792Z,15.88
2023-02-11T06:48:25.374Z,16.85
2023-02-11T06:49:27.164Z,14.85
2023-02-11T06:50:28.703Z,16.52
2023-02-11T06:51:30.218Z,14.75
2023-02-11T06:52:32.685Z,16.23
2023-02-11T06:53:43.676Z,16.55
2023-02-11T06:54:45.113Z,15.85
2023-02-11T06:55:47.016Z,15.98
2023-02-11T06:56:48.459Z,16.42
2023-02-11T06:57:49.943Z,17.17
2023-02-11T06:58:55.616Z,15.52
2023-02-11T06:59:57.126Z,16.38
2023-02-11T07:00:59.233Z,15.30
2023-02-11T07:02:00.891Z,16.00
2023-02-11T07:03:02.535Z,15.15
2023-02-11T07:04:03.993Z,16.48
2023-02-11T07:05:07.082Z,17.13
2023-02-11T07:06:12.763Z,16.25
2023-02-11T07:07:14.422Z,17.20
2023-02-11T07:08:15.862Z,16.17
2023-02-11T07:09:17.302Z,17.05
2023-02-11T07:10:19.089Z,17.10
2023-02-11T07:11:24.500Z,18.13
2023-02-11T07:12:26.037Z,19.60
2023-02-11T07:13:27.973Z,17.98
2023-02-11T07:14:29.434Z,17.33
2023-02-11T07:15:31.192Z,17.48
2023-02-11T07:16:33.013Z,16.25
2023-02-11T07:17:35.694Z,16.08
2023-02-11T07:18:37.426Z,15.45
2023-02-11T07:19:38.934Z,15.77
2023-02-11T07:20:40.401Z,16.27
2023-02-11T07:21:42.026Z,15.55
2023-02-11T07:22:43.511Z,16.20
2023-02-11T07:23:45.614Z,16.63
2023-02-11T07:24:47.106Z,16.08
2023-02-11T07:25:48.812Z,15.90
2023-02-11T07:26:50.494Z,15.57
2023-02-11T07:27:51.913Z,15.52
2023-02-11T07:28:53.422Z,15.13
2023-02-11T07:29:54.894Z,16.38
2023-02-11T07:30:56.396Z,15.52
2023-02-11T07:31:57.925Z,15.70
2023-02-11T07:32:59.434Z,16.52
2023-02-11T07:34:01.934Z,16.30
2023-02-11T07:35:04.279Z,18.17
2023-02-11T07:36:07.667Z,22.92
2023-02-11T07:37:09.164Z,18.23
2023-02-11T07:38:10.593Z,16.67
2023-02-11T07:39:12.504Z,16.00
2023-02-11T07:40:13.958Z,16.55
2023-02-11T07:41:19.102Z,16.00
2023-02-11T07:42:20.523Z,16.85
2023-02-11T07:43:22.280Z,15.25
2023-02-11T07:44:23.811Z,16.50
2023-02-11T07:45:25.428Z,14.13
2023-02-11T07:46:28.058Z,15.50
2023-02-11T07:47:29.508Z,14.35
2023-02-11T07:48:31.148Z,14.82
2023-02-11T07:49:32.740Z,15.35
2023-02-11T07:50:34.209Z,15.60
2023-02-11T07:51:35.647Z,14.90
2023-02-11T07:52:37.174Z,14.80
2023-02-11T07:53:38.909Z,14.18
2023-02-11T07:54:40.477Z,14.77
2023-02-11T07:55:43.376Z,13.95
2023-02-11T07:56:45.058Z,14.70
2023-02-11T07:57:46.641Z,14.48
2023-02-11T07:58:49.005Z,14.73
2023-02-11T07:59:50.528Z,14.70
2023-02-11T08:00:51.972Z,15.07
2023-02-11T08:01:53.538Z,14.82
2023-02-11T08:02:57.219Z,15.30
2023-02-11T08:04:00.564Z,13.70
2023-02-11T08:05:02.005Z,15.02
2023-02-11T08:06:12.041Z,16.10
2023-02-11T08:07:17.860Z,15.80
2023-02-11T08:08:19.437Z,14.95
2023-02-11T08:09:20.904Z,16.05
2023-02-11T08:10:22.561Z,13.02
2023-02-11T08:11:26.918Z,14.70
2023-02-11T08:12:28.406Z,15.35
2023-02-11T08:13:29.842Z,14.68
2023-02-11T08:14:32.808Z,15.90
2023-02-11T08:15:34.476Z,14.90
2023-02-11T08:16:37.176Z,16.05
2023-02-11T08:17:38.699Z,13.32
2023-02-11T08:18:40.126Z,13.65
2023-02-11T08:19:41.607Z,14.88
2023-02-11T08:20:43.119Z,16.08
2023-02-11T08:21:44.754Z,15.80
2023-02-11T08:22:46.216Z,15.50
2023-02-11T08:23:48.094Z,14.75
2023-02-11T08:24:52.081Z,15.07
2023-02-11T08:25:53.989Z,15.52
2023-02-11T08:26:55.476Z,13.57
2023-02-11T08:27:56.986Z,14.27
2023-02-11T08:28:59.503Z,15.95
2023-02-11T08:30:01.875Z,12.82
2023-02-11T08:31:12.267Z,15.15
2023-02-11T08:32:13.865Z,15.45
2023-02-11T08:33:15.336Z,14.68
2023-02-11T08:34:19.140Z,14.52
2023-02-11T08:35:20.621Z,14.40
2023-02-11T08:36:24.521Z,15.02
2023-02-11T08:37:26.063Z,14.52
2023-02-11T08:38:27.610Z,15.93
2023-02-11T08:39:29.097Z,14.60
2023-02-11T08:40:30.698Z,14.07
2023-02-11T08:41:33.874Z,14.77
2023-02-11T08:42:35.337Z,14.40
2023-02-11T08:43:37.550Z,14.68
2023-02-11T08:44:39.158Z,13.98
2023-02-11T08:45:40.640Z,14.25
2023-02-11T08:46:42.120Z,14.70
2023-02-11T08:47:43.655Z,13.90
2023-02-11T08:48:46.295Z,14.75
2023-02-11T08:49:47.918Z,15.48
2023-02-11T08:50:49.531Z,15.00
2023-02-11T08:51:51.325Z,16.80
2023-02-11T08:52:52.831Z,15.35
2023-02-11T08:53:55.084Z,15.27
2023-02-11T08:54:56.653Z,15.00
2023-02-11T08:55:58.260Z,14.95
2023-02-11T08:57:01.906Z,13.48
2023-02-11T08:58:03.431Z,13.45
2023-02-11T08:59:05.619Z,13.63
2023-02-11T09:00:07.869Z,13.35
2023-02-11T09:01:15.922Z,13.68
2023-02-11T09:02:17.879Z,14.30
2023-02-11T09:03:19.283Z,13.57
2023-02-11T09:04:20.702Z,13.48
2023-02-11T09:05:22.878Z,13.55
2023-02-11T09:06:25.789Z,13.50
2023-02-11T09:07:28.915Z,14.25
2023-02-11T09:11:36.434Z,13.30
2023-02-11T09:12:37.902Z,13.68
2023-02-11T09:13:41.980Z,13.45
2023-02-11T09:14:43.516Z,13.20
2023-02-11T09:15:46.799Z,13.82
2023-02-11T09:16:49.104Z,13.23
2023-02-11T09:17:51.026Z,13.75
2023-02-11T09:18:53.287Z,13.80
2023-02-11T09:19:54.773Z,14.45
2023-02-11T09:21:08.200Z,13.45
2023-02-11T09:22:09.689Z,13.40
2023-02-11T09:23:11.266Z,13.15
2023-02-11T09:24:12.745Z,13.05
2023-02-11T09:25:14.216Z,13.13
2023-02-11T09:26:20.359Z,12.70
2023-02-11T09:27:21.938Z,13.32
2023-02-11T09:28:23.466Z,11.93
2023-02-11T09:29:25.005Z,12.50
2023-02-11T09:30:26.726Z,13.80
2023-02-11T09:31:31.934Z,12.90
2023-02-11T09:32:34.432Z,16.08
2023-02-11T09:33:37.105Z,13.23
2023-02-11T09:34:38.663Z,12.80
2023-02-11T09:35:40.525Z,11.38
2023-02-11T09:36:42.358Z,12.25
2023-02-11T09:37:43.788Z,13.20
2023-02-11T09:38:46.574Z,12.50
2023-02-11T09:39:48.473Z,14.65
2023-02-11T09:40:50.363Z,12.32
2023-02-11T09:42:37.103Z,14.88
2023-02-11T09:43:46.315Z,14.05
2023-02-11T09:45:50.797Z,13.18
2023-02-11T09:47:02.848Z,12.27
2023-02-11T09:48:15.750Z,11.43
2023-02-11T09:49:22.838Z,11.25
2023-02-11T09:50:38.965Z,11.50
2023-02-11T09:51:52.368Z,13.05
2023-02-11T09:52:56.586Z,11.77
2023-02-11T09:54:05.687Z,11.70
2023-02-11T09:55:26.662Z,12.18
2023-02-11T09:56:28.428Z,11.30
2023-02-11T09:57:37.141Z,12.25
2023-02-11T09:58:41.073Z,11.63
2023-02-11T09:59:43.250Z,12.20
2023-02-11T10:01:09.662Z,11.60
2023-02-11T10:02:24.578Z,10.85
2023-02-11T10:03:44.249Z,11.02
2023-02-11T10:04:48.503Z,12.15
2023-02-11T10:06:14.399Z,11.73
2023-02-11T10:07:25.630Z,12.10
2023-02-11T10:08:45.777Z,12.13
2023-02-11T10:10:23.062Z,11.30
2023-02-11T10:11:35.111Z,12.18
2023-02-11T10:12:58.272Z,12.50
2023-02-11T10:14:41.403Z,12.63
2023-02-11T10:15:56.184Z,11.90
2023-02-11T10:17:06.765Z,12.05
2023-02-11T10:18:29.808Z,11.40
2023-02-11T10:19:47.349Z,12.02
2023-02-11T10:20:54.336Z,11.38
2023-02-11T10:22:13.032Z,11.02
2023-02-11T10:23:24.754Z,11.57
2023-02-11T10:24:29.099Z,10.73
2023-02-11T10:25:39.541Z,11.60
2023-02-11T10:26:41.850Z,12.00
2023-02-11T10:27:53.987Z,11.88
2023-02-11T10:29:01.792Z,11.05
2023-02-11T10:30:16.009Z,13.13
2023-02-11T10:31:35.756Z,11.52
2023-02-11T10:32:49.329Z,11.80
2023-02-11T10:34:06.429Z,10.52
2023-02-11T10:35:15.582Z,14.25
2023-02-11T10:37:20.054Z,11.15
2023-02-11T10:38:21.791Z,11.55
2023-02-11T10:39:26.784Z,11.60
2023-02-11T10:40:31.314Z,11.50
2023-02-11T10:41:36.922Z,11.45
2023-02-11T10:42:39.883Z,11.05
2023-02-11T10:43:42.800Z,10.75
2023-02-11T10:44:58.816Z,11.02
2023-02-11T10:46:04.777Z,11.10
2023-02-11T10:47:33.248Z,10.68
2023-02-11T10:48:44.206Z,10.18
2023-02-11T10:49:47.337Z,10.63
2023-02-11T10:50:48.997Z,10.48
2023-02-11T10:52:02.960Z,10.75
2023-02-11T10:53:23.820Z,10.70
2023-02-11T10:54:28.438Z,10.38
2023-02-11T10:55:30.073Z,10.90
2023-02-11T10:56:37.193Z,11.13
2023-02-11T10:57:50.206Z,10.15
2023-02-11T10:59:10.123Z,10.40
2023-02-11T11:00:30.439Z,11.20
2023-02-11T11:01:50.052Z,11.35
2023-02-11T11:03:00.277Z,11.00
2023-02-11T11:04:01.890Z,11.20
2023-02-11T11:05:16.255Z,11.75
2023-02-11T11:06:30.310Z,10.60
2023-02-11T11:07:33.850Z,10.80
2023-02-11T11:08:50.565Z,10.80
2023-02-11T11:09:55.467Z,11.02
2023-02-11T11:11:04.875Z,11.93
2023-02-11T11:12:06.378Z,10.48
2023-02-11T11:13:27.610Z,11.80
2023-02-11T11:14:29.658Z,10.90
2023-02-11T11:15:32.664Z,14.02
2023-02-11T11:17:38.049Z,11.25
2023-02-11T11:18:45.161Z,11.07
2023-02-11T11:19:46.645Z,11.77
2023-02-11T11:21:05.884Z,11.43
2023-02-11T11:22:07.463Z,10.95
2023-02-11T11:23:22.447Z,10.45
2023-02-11T11:24:33.601Z,11.65
2023-02-11T11:25:39.579Z,11.35
2023-02-11T11:26:47.916Z,12.20
2023-02-11T11:27:51.595Z,11.23
2023-02-11T11:28:59.843Z,11.10
2023-02-11T11:30:03.456Z,10.65
2023-02-11T11:31:12.407Z,11.05
2023-02-11T11:32:41.996Z,10.98
2023-02-11T11:33:44.671Z,10.60
2023-02-11T11:34:52.588Z,11.55
2023-02-11T11:36:06.821Z,11.75
2023-02-11T11:37:22.453Z,11.55
2023-02-11T11:38:24.575Z,12.30
2023-02-11T11:39:29.828Z,11.32
2023-02-11T11:40:33.466Z,12.00
2023-02-11T11:41:35.165Z,11.93
2023-02-11T11:42:38.812Z,11.50
2023-02-11T11:43:40.614Z,11.50
2023-02-11T11:44:42.033Z,11.70
2023-02-11T11:45:58.608Z,11.90
2023-02-11T11:47:12.097Z,11.38
2023-02-11T11:48:23.161Z,11.88
2023-02-11T11:49:36.269Z,10.55
2023-02-11T11:50:52.992Z,12.25
2023-02-11T11:52:09.354Z,12.10
2023-02-11T11:53:27.161Z,11.80
2023-02-11T11:54:31.403Z,11.57
2023-02-11T11:55:45.307Z,11.32
2023-02-11T11:57:01.568Z,11.55
2023-02-11T11:58:04.918Z,11.73
2023-02-11T11:59:16.849Z,11.60
2023-02-11T12:00:21.944Z,12.15
2023-02-11T12:01:54.080Z,11.68
2023-02-11T12:03:21.126Z,11.32
2023-02-11T12:04:31.824Z,11.40
2023-02-11T12:06:04.527Z,11.07
2023-02-11T12:07:17.938Z,13.30
2023-02-11T12:08:30.888Z,12.68
2023-02-11T12:09:59.173Z,11.80
2023-02-11T12:11:12.406Z,11.85
2023-02-11T12:12:46.560Z,12.27
2023-02-11T12:14:02.222Z,12.05
2023-02-11T12:16:37.164Z,11.07
2023-02-11T12:18:23.684Z,12.07
2023-02-11T12:20:00.453Z,10.68
2023-02-11T12:21:10.968Z,11.00
2023-02-11T12:22:30.983Z,11.70
2023-02-11T12:23:54.496Z,10.77
2023-02-11T12:25:25.476Z,11.52
2023-02-11T12:26:36.308Z,11.30
2023-02-11T12:27:44.442Z,11.43
2023-02-11T12:29:37.481Z,10.13
2023-02-11T12:30:50.491Z,11.80
2023-02-11T12:32:17.261Z,12.35
2023-02-11T12:33:49.766Z,11.80
2023-02-11T12:35:07.277Z,11.23
2023-02-11T12:36:23.400Z,12.07
2023-02-11T12:37:32.871Z,12.10
2023-02-11T12:38:46.999Z,11.75
2023-02-11T12:40:03.213Z,11.27
2023-02-11T12:41:53.469Z,10.77
2023-02-11T12:43:16.712Z,11.85
2023-02-11T12:44:40.264Z,11.57
2023-02-11T12:46:16.034Z,12.32
2023-02-11T12:47:35.626Z,11.63
2023-02-11T12:48:40.931Z,11.90
2023-02-11T12:50:02.850Z,12.52
2023-02-11T12:51:41.755Z,12.38
2023-02-11T12:52:48.031Z,12.05
2023-02-11T12:54:14.593Z,12.02
2023-02-11T12:55:23.448Z,12.15
2023-02-11T12:56:38.880Z,11.50
2023-02-11T12:57:42.310Z,11.75
2023-02-11T12:58:45.795Z,12.48
2023-02-11T13:00:05.049Z,12.48
2023-02-11T13:01:19.201Z,11.77
2023-02-11T13:02:44.673Z,11.43
2023-02-11T13:03:53.521Z,10.68
2023-02-11T13:05:01.587Z,10.75
2023-02-11T13:06:11.712Z,12.20
2023-02-11T13:07:19.864Z,12.93
2023-02-11T13:08:31.467Z,12.27
2023-02-11T13:09:39.431Z,12.55
2023-02-11T13:10:46.457Z,11.77
2023-02-11T13:11:57.995Z,11.82
2023-02-11T13:13:17.443Z,12.77
2023-02-11T13:14:25.080Z,12.15
2023-02-11T13:15:26.835Z,13.25
2023-02-11T13:16:38.046Z,12.25
2023-02-11T13:18:01.241Z,12.35
2023-02-11T13:19:14.081Z,11.38
2023-02-11T13:20:41.886Z,12.07
2023-02-11T13:22:00.518Z,12.50
2023-02-11T13:23:21.879Z,11.20
2023-02-11T13:24:38.509Z,11.52
2023-02-11T13:25:57.463Z,11.23
2023-02-11T13:27:25.352Z,11.23
2023-02-11T13:28:48.808Z,11.75
2023-02-11T13:29:50.370Z,11.93
2023-02-11T13:31:02.083Z,11.85
2023-02-11T13:32:48.178Z,12.40
2023-02-11T13:33:51.117Z,11.15
2023-02-11T13:34:53.093Z,12.55
2023-02-11T13:35:57.883Z,11.85
2023-02-11T13:37:07.592Z,11.63
2023-02-11T13:38:22.338Z,11.98
2023-02-11T13:39:58.797Z,11.48
2023-02-11T13:42:10.532Z,11.57
2023-02-11T13:43:38.662Z,11.35
2023-02-11T13:44:43.245Z,12.43
2023-02-11T13:46:10.385Z,11.30
2023-02-11T13:47:34.533Z,11.50
2023-02-11T13:48:38.979Z,11.90
2023-02-11T13:50:22.654Z,11.57
2023-02-11T13:51:39.689Z,11.68
2023-02-11T13:52:42.909Z,12.13
2023-02-11T13:53:56.018Z,11.40
2023-02-11T13:55:06.672Z,12.32
2023-02-11T13:56:33.330Z,11.38
2023-02-11T13:57:38.090Z,12.13
2023-02-11T13:59:02.029Z,11.70
2023-02-11T14:00:25.435Z,10.85
2023-02-11T14:02:12.890Z,11.85
2023-02-11T14:03:33.578Z,11.75
2023-02-11T14:04:53.413Z,11.88
2023-02-11T14:06:28.595Z,11.18
2023-02-11T14:07:55.532Z,11.20
2023-02-11T14:09:17.311Z,10.75
2023-02-11T14:10:43.518Z,11.30
2023-02-11T14:11:51.340Z,11.52
2023-02-11T14:13:18.608Z,11.25
2023-02-11T14:14:23.779Z,11.80
2023-02-11T14:19:46.358Z,12.20
2023-02-11T14:22:03.108Z,11.65
2023-02-11T14:24:36.756Z,11.55
2023-02-11T14:29:16.789Z,14.15
2023-02-11T14:30:41.438Z,16.90
2023-02-11T14:32:08.124Z,11.98
2023-02-11T14:33:39.023Z,14.32
2023-02-11T14:34:51.438Z,12.00
2023-02-11T14:38:48.852Z,11.70
2023-02-11T14:40:29.789Z,11.85
2023-02-11T14:41:40.135Z,11.88
2023-02-11T14:43:37.420Z,13.15
2023-02-11T14:50:09.878Z,13.07
2023-02-11T14:51:39.642Z,11.25
2023-02-11T14:52:43.120Z,11.50
2023-02-11T14:53:49.425Z,11.85
2023-02-11T14:55:25.298Z,11.48
2023-02-11T14:56:49.823Z,11.30
2023-02-11T15:02:08.727Z,10.98
2023-02-11T15:04:20.918Z,10.93
2023-02-11T15:05:27.022Z,11.35